sensor_id;sensor_type;location;lat;lon;timestamp;P1;durP1;ratioP1;P2;durP2;ratioP2
7935;SDS011;4013;49.744;8.118;2024-01-15T05:31:32;18.23;;;9.60;;
7935;SDS011;4013;49.744;8.118;2024-01-15T05:33:59;19.87;;;9.43;;
7935;SDS011;4013;49.744;8.118;2024-01-15T05:36:26;17.03;;;9.27;;
7935;SDS011;4013;49.744;8.118;2024-01-15T05:38:53;17.00;;;9.23;;
7935;SDS011;4013;49.744;8.118;2024-01-15T05:41:20;17.13;;;8.30;;
7935;SDS011;4013;49.744;8.118;2024-01-15T05:43:47;18.10;;;9.30;;
7935;SDS011;4013;49.744;8.118;2024-01-15T05:46:13;21.03;;;9.73;;
7935;SDS011;4013;49.744;8.118;2024-01-15T05:48:42;18.23;;;9.37;;
7935;SDS011;4013;49.744;8.118;2024-01-15T05:51:09;22.40;;;9.47;;
7935;SDS011;4013;49.744;8.118;2024-01-15T05:53:36;23.40;;;10.53;;
7935;SDS011;4013;49.744;8.118;2024-01-15T05:56:05;22.50;;;10.47;;
7935;SDS011;4013;49.744;8.118;2024-01-15T05:58:32;23.17;;;10.03;;
7935;SDS011;4013;49.744;8.118;2024-01-15T06:00:59;20.60;;;9.80;;
7935;SDS011;4013;49.744;8.118;2024-01-15T06:03:26;22.00;;;9.90;;
7935;SDS011;4013;49.744;8.118;2024-01-15T06:05:55;24.80;;;10.20;;
7935;SDS011;4013;49.744;8.118;2024-01-15T06:08:22;19.93;;;9.70;;
7935;SDS011;4013;49.744;8.118;2024-01-15T06:10:49;19.40;;;9.13;;
7935;SDS011;4013;49.744;8.118;2024-01-15T06:13:16;17.87;;;9.07;;
7935;SDS011;4013;49.744;8.118;2024-01-15T06:15:42;18.80;;;9.53;;
7935;SDS011;4013;49.744;8.118;2024-01-15T06:18:09;21.43;;;9.63;;
7935;SDS011;4013;49.744;8.118;2024-01-15T06:20:36;21.10;;;10.20;;
7935;SDS011;4013;49.744;8.118;2024-01-15T06:23:05;21.60;;;10.40;;
7935;SDS011;4013;49.744;8.118;2024-01-15T06:25:31;21.93;;;10.83;;
7935;SDS011;4013;49.744;8.118;2024-01-15T06:27:58;20.27;;;9.87;;
7935;SDS011;4013;49.744;8.118;2024-01-15T06:30:25;18.00;;;9.63;;
7935;SDS011;4013;49.744;8.118;2024-01-15T06:32:52;20.07;;;9.77;;
7935;SDS011;4013;49.744;8.118;2024-01-15T06:35:19;20.03;;;9.90;;
7935;SDS011;4013;49.744;8.118;2024-01-15T06:37:46;20.03;;;9.63;;
7935;SDS011;4013;49.744;8.118;2024-01-15T06:40:14;22.13;;;11.07;;
7935;SDS011;4013;49.744;8.118;2024-01-15T06:42:41;18.73;;;10.00;;
7935;SDS011;4013;49.744;8.118;2024-01-15T06:45:08;20.37;;;10.47;;
7935;SDS011;4013;49.744;8.118;2024-01-15T06:47:35;20.83;;;11.10;;
7935;SDS011;4013;49.744;8.118;2024-01-15T06:50:02;21.30;;;10.77;;
7935;SDS011;4013;49.744;8.118;2024-01-15T06:52:32;24.10;;;10.37;;
7935;SDS011;4013;49.744;8.118;2024-01-15T06:54:59;20.47;;;10.50;;
7935;SDS011;4013;49.744;8.118;2024-01-15T06:57:27;21.47;;;10.87;;
7935;SDS011;4013;49.744;8.118;2024-01-15T06:59:54;17.70;;;9.23;;
7935;SDS011;4013;49.744;8.118;2024-01-15T07:02:21;19.47;;;9.60;;
7935;SDS011;4013;49.744;8.118;2024-01-15T07:04:47;19.00;;;9.20;;
7935;SDS011;4013;49.744;8.118;2024-01-15T07:07:14;20.87;;;9.97;;
7935;SDS011;4013;49.744;8.118;2024-01-15T07:09:42;19.30;;;9.63;;
7935;SDS011;4013;49.744;8.118;2024-01-15T07:12:09;17.10;;;9.23;;
7935;SDS011;4013;49.744;8.118;2024-01-15T07:14:37;18.13;;;9.60;;
7935;SDS011;4013;49.744;8.118;2024-01-15T07:17:04;19.97;;;10.40;;
7935;SDS011;4013;49.744;8.118;2024-01-15T07:19:31;19.37;;;9.87;;
7935;SDS011;4013;49.744;8.118;2024-01-15T07:21:58;18.63;;;9.47;;
7935;SDS011;4013;49.744;8.118;2024-01-15T07:24:25;18.17;;;9.93;;
7935;SDS011;4013;49.744;8.118;2024-01-15T07:26:52;16.43;;;9.10;;
7935;SDS011;4013;49.744;8.118;2024-01-15T07:29:19;17.90;;;9.23;;
7935;SDS011;4013;49.744;8.118;2024-01-15T07:31:49;19.63;;;10.73;;
7935;SDS011;4013;49.744;8.118;2024-01-15T07:34:16;18.93;;;9.73;;
7935;SDS011;4013;49.744;8.118;2024-01-15T07:36:43;19.73;;;10.23;;
7935;SDS011;4013;49.744;8.118;2024-01-15T07:39:10;20.10;;;10.40;;
7935;SDS011;4013;49.744;8.118;2024-01-15T07:41:37;18.13;;;9.90;;
7935;SDS011;4013;49.744;8.118;2024-01-15T07:44:04;24.67;;;10.30;;
7935;SDS011;4013;49.744;8.118;2024-01-15T07:46:31;21.33;;;10.23;;
7935;SDS011;4013;49.744;8.118;2024-01-15T07:49:02;20.53;;;10.00;;
7935;SDS011;4013;49.744;8.118;2024-01-15T07:51:30;16.87;;;8.90;;
7935;SDS011;4013;49.744;8.118;2024-01-15T07:53:58;20.57;;;9.40;;
7935;SDS011;4013;49.744;8.118;2024-01-15T07:56:25;16.50;;;8.83;;
7935;SDS011;4013;49.744;8.118;2024-01-15T07:58:53;18.17;;;9.27;;
7935;SDS011;4013;49.744;8.118;2024-01-15T08:01:20;18.00;;;9.43;;
7935;SDS011;4013;49.744;8.118;2024-01-15T08:03:47;19.00;;;9.80;;
7935;SDS011;4013;49.744;8.118;2024-01-15T08:06:16;17.47;;;9.70;;
7935;SDS011;4013;49.744;8.118;2024-01-15T08:08:43;19.93;;;10.03;;
7935;SDS011;4013;49.744;8.118;2024-01-15T08:11:10;17.20;;;9.90;;
7935;SDS011;4013;49.744;8.118;2024-01-15T08:13:37;16.97;;;9.03;;
7935;SDS011;4013;49.744;8.118;2024-01-15T08:16:05;16.33;;;8.90;;
7935;SDS011;4013;49.744;8.118;2024-01-15T08:18:33;15.87;;;8.60;;
7935;SDS011;4013;49.744;8.118;2024-01-15T08:21:00;18.93;;;10.00;;
7935;SDS011;4013;49.744;8.118;2024-01-15T08:23:30;16.77;;;9.33;;
7935;SDS011;4013;49.744;8.118;2024-01-15T08:25:58;16.40;;;8.90;;
7935;SDS011;4013;49.744;8.118;2024-01-15T08:28:25;16.07;;;8.80;;
7935;SDS011;4013;49.744;8.118;2024-01-15T08:30:52;16.27;;;8.63;;
7935;SDS011;4013;49.744;8.118;2024-01-15T08:33:19;16.53;;;9.13;;
7935;SDS011;4013;49.744;8.118;2024-01-15T08:35:46;17.13;;;9.20;;
7935;SDS011;4013;49.744;8.118;2024-01-15T08:38:12;16.37;;;9.20;;
7935;SDS011;4013;49.744;8.118;2024-01-15T08:40:41;18.63;;;9.57;;
7935;SDS011;4013;49.744;8.118;2024-01-15T08:43:08;16.83;;;8.80;;
7935;SDS011;4013;49.744;8.118;2024-01-15T08:45:35;14.53;;;8.37;;
7935;SDS011;4013;49.744;8.118;2024-01-15T08:48:02;16.83;;;9.43;;
7935;SDS011;4013;49.744;8.118;2024-01-15T08:50:29;19.17;;;8.70;;
7935;SDS011;4013;49.744;8.118;2024-01-15T08:52:57;15.50;;;8.33;;
7935;SDS011;4013;49.744;8.118;2024-01-15T08:55:24;17.53;;;9.00;;
7935;SDS011;4013;49.744;8.118;2024-01-15T08:57:52;17.30;;;8.77;;
7935;SDS011;4013;49.744;8.118;2024-01-15T09:00:19;17.00;;;9.20;;
7935;SDS011;4013;49.744;8.118;2024-01-15T09:02:46;17.50;;;8.63;;
7935;SDS011;4013;49.744;8.118;2024-01-15T09:05:13;15.93;;;9.33;;
7935;SDS011;4013;49.744;8.118;2024-01-15T09:07:40;17.30;;;9.00;;
7935;SDS011;4013;49.744;8.118;2024-01-15T09:10:07;16.13;;;8.73;;
7935;SDS011;4013;49.744;8.118;2024-01-15T09:12:34;16.63;;;9.63;;
7935;SDS011;4013;49.744;8.118;2024-01-15T09:15:03;16.40;;;9.33;;
7935;SDS011;4013;49.744;8.118;2024-01-15T09:17:31;17.80;;;9.63;;
7935;SDS011;4013;49.744;8.118;2024-01-15T09:19:58;17.23;;;9.90;;
7935;SDS011;4013;49.744;8.118;2024-01-15T09:22:25;17.07;;;9.27;;
7935;SDS011;4013;49.744;8.118;2024-01-15T09:24:52;16.60;;;9.63;;
7935;SDS011;4013;49.744;8.118;2024-01-15T09:27:19;18.70;;;10.70;;
7935;SDS011;4013;49.744;8.118;2024-01-15T09:29:46;17.20;;;9.33;;
7935;SDS011;4013;49.744;8.118;2024-01-15T09:32:14;14.73;;;8.57;;
7935;SDS011;4013;49.744;8.118;2024-01-15T09:34:41;14.93;;;9.07;;
7935;SDS011;4013;49.744;8.118;2024-01-15T09:37:08;17.00;;;9.43;;
7935;SDS011;4013;49.744;8.118;2024-01-15T09:39:35;14.67;;;8.87;;
7935;SDS011;4013;49.744;8.118;2024-01-15T09:42:01;15.50;;;9.10;;
7935;SDS011;4013;49.744;8.118;2024-01-15T09:44:29;16.07;;;8.43;;
7935;SDS011;4013;49.744;8.118;2024-01-15T09:46:57;17.47;;;9.23;;
7935;SDS011;4013;49.744;8.118;2024-01-15T09:49:26;16.20;;;8.77;;
7935;SDS011;4013;49.744;8.118;2024-01-15T09:51:53;13.37;;;8.30;;
7935;SDS011;4013;49.744;8.118;2024-01-15T09:54:23;15.80;;;8.77;;
7935;SDS011;4013;49.744;8.118;2024-01-15T09:56:50;16.27;;;9.00;;
7935;SDS011;4013;49.744;8.118;2024-01-15T09:59:17;18.30;;;9.23;;
7935;SDS011;4013;49.744;8.118;2024-01-15T10:01:45;16.63;;;9.07;;
7935;SDS011;4013;49.744;8.118;2024-01-15T10:04:13;15.33;;;8.13;;
7935;SDS011;4013;49.744;8.118;2024-01-15T10:06:45;14.40;;;8.60;;
7935;SDS011;4013;49.744;8.118;2024-01-15T10:09:12;13.70;;;8.13;;
7935;SDS011;4013;49.744;8.118;2024-01-15T10:11:40;12.07;;;8.07;;
7935;SDS011;4013;49.744;8.118;2024-01-15T10:14:08;12.47;;;7.57;;
7935;SDS011;4013;49.744;8.118;2024-01-15T10:16:37;15.23;;;8.60;;
7935;SDS011;4013;49.744;8.118;2024-01-15T10:19:04;13.77;;;8.17;;
7935;SDS011;4013;49.744;8.118;2024-01-15T10:21:31;14.53;;;8.50;;
7935;SDS011;4013;49.744;8.118;2024-01-15T10:24:01;11.83;;;7.23;;
7935;SDS011;4013;49.744;8.118;2024-01-15T10:26:29;14.70;;;7.77;;
7935;SDS011;4013;49.744;8.118;2024-01-15T10:28:58;12.43;;;7.30;;
7935;SDS011;4013;49.744;8.118;2024-01-15T10:31:25;12.83;;;7.57;;
7935;SDS011;4013;49.744;8.118;2024-01-15T10:33:52;12.60;;;7.40;;
7935;SDS011;4013;49.744;8.118;2024-01-15T10:36:19;12.07;;;7.70;;
7935;SDS011;4013;49.744;8.118;2024-01-15T10:38:46;12.37;;;7.23;;
7935;SDS011;4013;49.744;8.118;2024-01-15T10:41:15;12.67;;;7.83;;
7935;SDS011;4013;49.744;8.118;2024-01-15T10:43:42;12.93;;;7.47;;
7935;SDS011;4013;49.744;8.118;2024-01-15T10:46:10;13.73;;;7.43;;
7935;SDS011;4013;49.744;8.118;2024-01-15T10:48:37;11.80;;;7.60;;
7935;SDS011;4013;49.744;8.118;2024-01-15T10:51:05;12.03;;;6.93;;
7935;SDS011;4013;49.744;8.118;2024-01-15T10:53:35;13.00;;;7.83;;
7935;SDS011;4013;49.744;8.118;2024-01-15T10:56:05;12.20;;;6.87;;
7935;SDS011;4013;49.744;8.118;2024-01-15T10:58:34;11.33;;;6.60;;
7935;SDS011;4013;49.744;8.118;2024-01-15T11:01:03;10.57;;;6.90;;
7935;SDS011;4013;49.744;8.118;2024-01-15T11:03:31;12.17;;;6.87;;
7935;SDS011;4013;49.744;8.118;2024-01-15T11:05:59;12.73;;;7.90;;
7935;SDS011;4013;49.744;8.118;2024-01-15T11:08:26;11.90;;;6.87;;
7935;SDS011;4013;49.744;8.118;2024-01-15T11:10:53;11.77;;;7.63;;
7935;SDS011;4013;49.744;8.118;2024-01-15T11:13:20;11.80;;;7.07;;
7935;SDS011;4013;49.744;8.118;2024-01-15T11:15:56;11.00;;;6.63;;
7935;SDS011;4013;49.744;8.118;2024-01-15T11:18:22;11.20;;;6.87;;
7935;SDS011;4013;49.744;8.118;2024-01-15T11:23:49;11.80;;;7.77;;
7935;SDS011;4013;49.744;8.118;2024-01-15T11:26:30;11.87;;;7.37;;
7935;SDS011;4013;49.744;8.118;2024-01-15T11:28:58;14.23;;;7.50;;
7935;SDS011;4013;49.744;8.118;2024-01-15T11:31:28;12.20;;;7.50;;
7935;SDS011;4013;49.744;8.118;2024-01-15T11:33:55;10.70;;;6.77;;
7935;SDS011;4013;49.744;8.118;2024-01-15T11:42:14;12.63;;;7.07;;
7935;SDS011;4013;49.744;8.118;2024-01-15T11:44:43;13.03;;;7.20;;
7935;SDS011;4013;49.744;8.118;2024-01-15T11:47:12;11.17;;;7.03;;
7935;SDS011;4013;49.744;8.118;2024-01-15T11:49:50;9.63;;;6.23;;
7935;SDS011;4013;49.744;8.118;2024-01-15T11:52:24;10.43;;;7.00;;
7935;SDS011;4013;49.744;8.118;2024-01-15T11:54:55;12.27;;;7.40;;
7935;SDS011;4013;49.744;8.118;2024-01-15T11:57:31;11.17;;;6.80;;
7935;SDS011;4013;49.744;8.118;2024-01-15T12:00:07;10.97;;;7.20;;
7935;SDS011;4013;49.744;8.118;2024-01-15T12:02:37;11.40;;;6.53;;
7935;SDS011;4013;49.744;8.118;2024-01-15T12:05:04;11.70;;;6.53;;
7935;SDS011;4013;49.744;8.118;2024-01-15T12:07:32;11.33;;;6.77;;
7935;SDS011;4013;49.744;8.118;2024-01-15T12:09:59;11.23;;;6.60;;
7935;SDS011;4013;49.744;8.118;2024-01-15T12:12:28;10.93;;;7.20;;
7935;SDS011;4013;49.744;8.118;2024-01-15T12:15:02;12.73;;;6.17;;
7935;SDS011;4013;49.744;8.118;2024-01-15T12:17:30;10.40;;;6.60;;
7935;SDS011;4013;49.744;8.118;2024-01-15T12:19:59;10.00;;;6.17;;
7935;SDS011;4013;49.744;8.118;2024-01-15T12:22:26;8.03;;;5.47;;
7935;SDS011;4013;49.744;8.118;2024-01-15T12:24:53;12.57;;;6.43;;
7935;SDS011;4013;49.744;8.118;2024-01-15T12:27:21;11.33;;;5.77;;
7935;SDS011;4013;49.744;8.118;2024-01-15T12:29:48;10.77;;;6.37;;
7935;SDS011;4013;49.744;8.118;2024-01-15T12:32:16;10.37;;;6.63;;
7935;SDS011;4013;49.744;8.118;2024-01-15T12:34:45;9.50;;;6.40;;
7935;SDS011;4013;49.744;8.118;2024-01-15T12:37:14;9.27;;;5.63;;
7935;SDS011;4013;49.744;8.118;2024-01-15T12:39:42;8.87;;;5.60;;
7935;SDS011;4013;49.744;8.118;2024-01-15T12:42:09;13.23;;;6.57;;
7935;SDS011;4013;49.744;8.118;2024-01-15T12:44:36;10.00;;;6.10;;
7935;SDS011;4013;49.744;8.118;2024-01-15T12:47:04;11.23;;;6.13;;
7935;SDS011;4013;49.744;8.118;2024-01-15T12:49:31;11.57;;;6.73;;
7935;SDS011;4013;49.744;8.118;2024-01-15T12:51:58;9.97;;;5.83;;
7935;SDS011;4013;49.744;8.118;2024-01-15T12:54:27;9.53;;;6.20;;
7935;SDS011;4013;49.744;8.118;2024-01-15T12:56:54;10.13;;;6.47;;
7935;SDS011;4013;49.744;8.118;2024-01-15T12:59:20;10.90;;;6.63;;
7935;SDS011;4013;49.744;8.118;2024-01-15T13:01:47;8.93;;;5.90;;
7935;SDS011;4013;49.744;8.118;2024-01-15T13:04:20;10.50;;;6.47;;
7935;SDS011;4013;49.744;8.118;2024-01-15T13:06:48;10.33;;;6.30;;
7935;SDS011;4013;49.744;8.118;2024-01-15T13:09:15;10.23;;;5.60;;
7935;SDS011;4013;49.744;8.118;2024-01-15T13:11:44;9.60;;;5.80;;
7935;SDS011;4013;49.744;8.118;2024-01-15T13:14:11;8.53;;;5.67;;
7935;SDS011;4013;49.744;8.118;2024-01-15T13:16:39;10.57;;;6.33;;
7935;SDS011;4013;49.744;8.118;2024-01-15T13:19:07;8.40;;;5.70;;
7935;SDS011;4013;49.744;8.118;2024-01-15T13:21:36;8.70;;;5.13;;
7935;SDS011;4013;49.744;8.118;2024-01-15T13:24:03;8.73;;;4.90;;
7935;SDS011;4013;49.744;8.118;2024-01-15T13:26:30;9.40;;;5.30;;
7935;SDS011;4013;49.744;8.118;2024-01-15T13:28:59;7.37;;;5.00;;
7935;SDS011;4013;49.744;8.118;2024-01-15T13:31:26;6.97;;;4.67;;
7935;SDS011;4013;49.744;8.118;2024-01-15T13:33:53;8.67;;;4.77;;
7935;SDS011;4013;49.744;8.118;2024-01-15T13:36:21;6.93;;;4.43;;
7935;SDS011;4013;49.744;8.118;2024-01-15T13:38:48;5.93;;;4.20;;
7935;SDS011;4013;49.744;8.118;2024-01-15T13:41:15;8.63;;;4.00;;
7935;SDS011;4013;49.744;8.118;2024-01-15T13:43:43;4.47;;;3.67;;
7935;SDS011;4013;49.744;8.118;2024-01-15T13:46:16;5.50;;;3.60;;
7935;SDS011;4013;49.744;8.118;2024-01-15T13:48:43;11.10;;;4.20;;
7935;SDS011;4013;49.744;8.118;2024-01-15T13:51:10;7.40;;;4.50;;
7935;SDS011;4013;49.744;8.118;2024-01-15T13:53:37;6.57;;;4.00;;
7935;SDS011;4013;49.744;8.118;2024-01-15T13:56:05;4.53;;;3.50;;
7935;SDS011;4013;49.744;8.118;2024-01-15T13:58:32;9.23;;;4.07;;
7935;SDS011;4013;49.744;8.118;2024-01-15T14:01:00;5.70;;;3.70;;
7935;SDS011;4013;49.744;8.118;2024-01-15T14:03:30;6.27;;;3.67;;
7935;SDS011;4013;49.744;8.118;2024-01-15T14:05:56;7.13;;;3.67;;
7935;SDS011;4013;49.744;8.118;2024-01-15T14:08:23;5.40;;;3.43;;
7935;SDS011;4013;49.744;8.118;2024-01-15T14:10:51;6.53;;;3.93;;
7935;SDS011;4013;49.744;8.118;2024-01-15T14:13:18;4.70;;;3.20;;
7935;SDS011;4013;49.744;8.118;2024-01-15T14:15:45;7.53;;;3.60;;
7935;SDS011;4013;49.744;8.118;2024-01-15T14:18:13;5.87;;;3.47;;
7935;SDS011;4013;49.744;8.118;2024-01-15T14:20:42;6.97;;;3.50;;
7935;SDS011;4013;49.744;8.118;2024-01-15T14:23:09;5.30;;;3.20;;
7935;SDS011;4013;49.744;8.118;2024-01-15T14:25:36;9.37;;;4.03;;
7935;SDS011;4013;49.744;8.118;2024-01-15T14:28:04;5.07;;;3.63;;
7935;SDS011;4013;49.744;8.118;2024-01-15T14:30:31;7.20;;;3.90;;
7935;SDS011;4013;49.744;8.118;2024-01-15T14:32:58;6.20;;;3.80;;
7935;SDS011;4013;49.744;8.118;2024-01-15T14:35:25;5.27;;;3.83;;
7935;SDS011;4013;49.744;8.118;2024-01-15T14:37:53;7.10;;;3.50;;
7935;SDS011;4013;49.744;8.118;2024-01-15T14:40:23;5.63;;;3.57;;
7935;SDS011;4013;49.744;8.118;2024-01-15T14:42:51;6.57;;;4.37;;
7935;SDS011;4013;49.744;8.118;2024-01-15T14:45:18;7.93;;;4.20;;
7935;SDS011;4013;49.744;8.118;2024-01-15T14:47:45;8.77;;;3.90;;
7935;SDS011;4013;49.744;8.118;2024-01-15T14:50:12;6.63;;;4.20;;
7935;SDS011;4013;49.744;8.118;2024-01-15T14:52:39;9.37;;;3.70;;
7935;SDS011;4013;49.744;8.118;2024-01-15T14:55:09;7.27;;;4.40;;
7935;SDS011;4013;49.744;8.118;2024-01-15T14:57:36;6.23;;;4.20;;
7935;SDS011;4013;49.744;8.118;2024-01-15T15:00:03;9.57;;;4.60;;
7935;SDS011;4013;49.744;8.118;2024-01-15T15:02:33;7.97;;;4.10;;
7935;SDS011;4013;49.744;8.118;2024-01-15T15:05:00;6.53;;;4.07;;
7935;SDS011;4013;49.744;8.118;2024-01-15T15:07:27;6.53;;;4.17;;
7935;SDS011;4013;49.744;8.118;2024-01-15T15:09:54;9.90;;;4.90;;
7935;SDS011;4013;49.744;8.118;2024-01-15T15:12:22;7.03;;;4.10;;
7935;SDS011;4013;49.744;8.118;2024-01-15T15:14:49;6.97;;;4.20;;
7935;SDS011;4013;49.744;8.118;2024-01-15T15:17:17;8.27;;;4.83;;
7935;SDS011;4013;49.744;8.118;2024-01-15T15:19:43;6.67;;;4.00;;
7935;SDS011;4013;49.744;8.118;2024-01-15T15:22:10;7.47;;;4.20;;
7935;SDS011;4013;49.744;8.118;2024-01-15T15:24:37;6.73;;;3.80;;
7935;SDS011;4013;49.744;8.118;2024-01-15T15:27:04;7.37;;;3.57;;
7935;SDS011;4013;49.744;8.118;2024-01-15T15:29:33;5.70;;;3.60;;
7935;SDS011;4013;49.744;8.118;2024-01-15T15:32:01;4.53;;;3.03;;
7935;SDS011;4013;49.744;8.118;2024-01-15T15:34:28;6.73;;;3.27;;
7935;SDS011;4013;49.744;8.118;2024-01-15T15:36:55;6.60;;;3.43;;
7935;SDS011;4013;49.744;8.118;2024-01-15T15:39:22;6.53;;;3.33;;
7935;SDS011;4013;49.744;8.118;2024-01-15T15:41:49;3.67;;;3.00;;
7935;SDS011;4013;49.744;8.118;2024-01-15T15:44:16;8.43;;;3.57;;
7935;SDS011;4013;49.744;8.118;2024-01-15T15:46:45;6.10;;;3.80;;
7935;SDS011;4013;49.744;8.118;2024-01-15T15:49:12;6.77;;;3.83;;
7935;SDS011;4013;49.744;8.118;2024-01-15T15:51:39;5.37;;;3.20;;
7935;SDS011;4013;49.744;8.118;2024-01-15T15:54:06;7.10;;;3.50;;
7935;SDS011;4013;49.744;8.118;2024-01-15T15:56:33;6.03;;;3.37;;
7935;SDS011;4013;49.744;8.118;2024-01-15T15:59:03;8.13;;;4.27;;
7935;SDS011;4013;49.744;8.118;2024-01-15T16:01:35;5.90;;;3.33;;
7935;SDS011;4013;49.744;8.118;2024-01-15T16:04:04;9.37;;;3.67;;
7935;SDS011;4013;49.744;8.118;2024-01-15T16:06:30;7.27;;;3.30;;
7935;SDS011;4013;49.744;8.118;2024-01-15T16:08:57;6.87;;;3.10;;
7935;SDS011;4013;49.744;8.118;2024-01-15T16:11:24;8.60;;;3.30;;
7935;SDS011;4013;49.744;8.118;2024-01-15T16:13:51;4.17;;;2.30;;
7935;SDS011;4013;49.744;8.118;2024-01-15T16:16:18;3.00;;;2.27;;
7935;SDS011;4013;49.744;8.118;2024-01-15T16:18:45;4.40;;;2.30;;
7935;SDS011;4013;49.744;8.118;2024-01-15T16:21:13;4.67;;;2.13;;
7935;SDS011;4013;49.744;8.118;2024-01-15T16:23:41;5.73;;;2.23;;
7935;SDS011;4013;49.744;8.118;2024-01-15T16:26:08;2.97;;;2.27;;
7935;SDS011;4013;49.744;8.118;2024-01-15T16:28:35;5.73;;;2.53;;
7935;SDS011;4013;49.744;8.118;2024-01-15T16:31:02;2.80;;;1.97;;
7935;SDS011;4013;49.744;8.118;2024-01-15T16:33:30;5.33;;;2.70;;
7935;SDS011;4013;49.744;8.118;2024-01-15T16:35:58;4.47;;;2.50;;
7935;SDS011;4013;49.744;8.118;2024-01-15T16:38:27;2.60;;;2.03;;
7935;SDS011;4013;49.744;8.118;2024-01-15T16:40:54;5.00;;;2.83;;
7935;SDS011;4013;49.744;8.118;2024-01-15T16:43:21;2.73;;;2.00;;
7935;SDS011;4013;49.744;8.118;2024-01-15T16:45:48;4.63;;;2.03;;
7935;SDS011;4013;49.744;8.118;2024-01-15T16:48:15;3.77;;;2.10;;
7935;SDS011;4013;49.744;8.118;2024-01-15T16:50:42;6.80;;;2.10;;
7935;SDS011;4013;49.744;8.118;2024-01-15T16:53:10;5.00;;;1.97;;
7935;SDS011;4013;49.744;8.118;2024-01-15T16:55:39;5.60;;;2.43;;
7935;SDS011;4013;49.744;8.118;2024-01-15T16:58:06;4.37;;;2.30;;
7935;SDS011;4013;49.744;8.118;2024-01-15T17:00:33;4.77;;;2.27;;
7935;SDS011;4013;49.744;8.118;2024-01-15T17:03:02;3.30;;;2.10;;
7935;SDS011;4013;49.744;8.118;2024-01-15T17:05:29;4.20;;;2.47;;
7935;SDS011;4013;49.744;8.118;2024-01-15T17:07:56;4.10;;;2.10;;
7935;SDS011;4013;49.744;8.118;2024-01-15T17:10:23;5.80;;;2.37;;
7935;SDS011;4013;49.744;8.118;2024-01-15T17:12:51;2.30;;;1.90;;
7935;SDS011;4013;49.744;8.118;2024-01-15T17:15:18;4.97;;;2.50;;
7935;SDS011;4013;49.744;8.118;2024-01-15T17:17:45;4.23;;;2.27;;
7935;SDS011;4013;49.744;8.118;2024-01-15T17:20:12;4.60;;;1.90;;
7935;SDS011;4013;49.744;8.118;2024-01-15T17:22:39;3.47;;;2.00;;
7935;SDS011;4013;49.744;8.118;2024-01-15T17:25:06;6.93;;;2.10;;
7935;SDS011;4013;49.744;8.118;2024-01-15T17:27:33;3.83;;;2.30;;
7935;SDS011;4013;49.744;8.118;2024-01-15T17:30:02;3.87;;;2.07;;
7935;SDS011;4013;49.744;8.118;2024-01-15T17:32:29;5.13;;;2.33;;
7935;SDS011;4013;49.744;8.118;2024-01-15T17:34:56;2.17;;;1.73;;
7935;SDS011;4013;49.744;8.118;2024-01-15T17:37:23;7.33;;;2.30;;
7935;SDS011;4013;49.744;8.118;2024-01-15T17:39:51;7.07;;;1.90;;
7935;SDS011;4013;49.744;8.118;2024-01-15T17:42:18;2.63;;;1.80;;
7935;SDS011;4013;49.744;8.118;2024-01-15T17:44:45;6.10;;;2.00;;
7935;SDS011;4013;49.744;8.118;2024-01-15T17:47:15;4.03;;;2.50;;
7935;SDS011;4013;49.744;8.118;2024-01-15T17:49:42;3.13;;;1.90;;
7935;SDS011;4013;49.744;8.118;2024-01-15T17:52:08;6.63;;;2.17;;
7935;SDS011;4013;49.744;8.118;2024-01-15T17:54:35;3.70;;;1.97;;
7935;SDS011;4013;49.744;8.118;2024-01-15T17:57:03;3.40;;;2.07;;
7935;SDS011;4013;49.744;8.118;2024-01-15T17:59:32;4.80;;;2.10;;
7935;SDS011;4013;49.744;8.118;2024-01-15T18:01:59;6.73;;;2.27;;
7935;SDS011;4013;49.744;8.118;2024-01-15T18:04:27;2.63;;;2.10;;
7935;SDS011;4013;49.744;8.118;2024-01-15T18:06:54;3.47;;;1.93;;
7935;SDS011;4013;49.744;8.118;2024-01-15T18:09:21;4.33;;;1.93;;
7935;SDS011;4013;49.744;8.118;2024-01-15T18:11:48;6.10;;;2.20;;
7935;SDS011;4013;49.744;8.118;2024-01-15T18:14:15;7.17;;;2.43;;
7935;SDS011;4013;49.744;8.118;2024-01-15T18:16:41;3.70;;;2.20;;
7935;SDS011;4013;49.744;8.118;2024-01-15T18:19:13;5.20;;;2.40;;
7935;SDS011;4013;49.744;8.118;2024-01-15T18:21:43;4.00;;;2.60;;
7935;SDS011;4013;49.744;8.118;2024-01-15T18:24:11;4.33;;;2.70;;
7935;SDS011;4013;49.744;8.118;2024-01-15T18:26:38;3.87;;;2.40;;
7935;SDS011;4013;49.744;8.118;2024-01-15T18:29:06;3.03;;;2.17;;
7935;SDS011;4013;49.744;8.118;2024-01-15T18:31:33;7.43;;;2.40;;
7935;SDS011;4013;49.744;8.118;2024-01-15T18:34:00;4.63;;;2.60;;
7935;SDS011;4013;49.744;8.118;2024-01-15T18:36:27;3.27;;;2.17;;
7935;SDS011;4013;49.744;8.118;2024-01-15T18:38:56;2.60;;;2.20;;
7935;SDS011;4013;49.744;8.118;2024-01-15T18:41:30;3.80;;;2.30;;
7935;SDS011;4013;49.744;8.118;2024-01-15T18:43:57;3.17;;;2.40;;
7935;SDS011;4013;49.744;8.118;2024-01-15T18:46:27;5.30;;;2.27;;
7935;SDS011;4013;49.744;8.118;2024-01-15T18:48:54;2.77;;;2.37;;
7935;SDS011;4013;49.744;8.118;2024-01-15T18:51:21;4.13;;;2.43;;
7935;SDS011;4013;49.744;8.118;2024-01-15T18:53:49;6.20;;;2.80;;
7935;SDS011;4013;49.744;8.118;2024-01-15T18:56:17;8.50;;;2.70;;
7935;SDS011;4013;49.744;8.118;2024-01-15T18:58:44;4.60;;;2.40;;
7935;SDS011;4013;49.744;8.118;2024-01-15T19:01:11;3.60;;;2.20;;
7935;SDS011;4013;49.744;8.118;2024-01-15T19:03:39;5.23;;;2.57;;
7935;SDS011;4013;49.744;8.118;2024-01-15T19:06:06;3.90;;;2.00;;
7935;SDS011;4013;49.744;8.118;2024-01-15T19:08:33;5.73;;;2.40;;
7935;SDS011;4013;49.744;8.118;2024-01-15T19:11:00;4.30;;;2.53;;
7935;SDS011;4013;49.744;8.118;2024-01-15T19:13:29;6.37;;;2.43;;
7935;SDS011;4013;49.744;8.118;2024-01-15T19:15:56;4.27;;;2.10;;
7935;SDS011;4013;49.744;8.118;2024-01-15T19:18:24;3.50;;;2.47;;
7935;SDS011;4013;49.744;8.118;2024-01-15T19:20:52;5.20;;;2.93;;
7935;SDS011;4013;49.744;8.118;2024-01-15T19:23:19;3.20;;;2.30;;
7935;SDS011;4013;49.744;8.118;2024-01-15T19:25:46;3.67;;;2.60;;
7935;SDS011;4013;49.744;8.118;2024-01-15T19:28:13;2.87;;;2.37;;
7935;SDS011;4013;49.744;8.118;2024-01-15T19:30:41;3.77;;;2.53;;
7935;SDS011;4013;49.744;8.118;2024-01-15T19:33:08;4.27;;;2.33;;
7935;SDS011;4013;49.744;8.118;2024-01-15T19:35:35;7.50;;;2.80;;
7935;SDS011;4013;49.744;8.118;2024-01-15T19:38:03;4.63;;;2.33;;
7935;SDS011;4013;49.744;8.118;2024-01-15T19:40:30;3.17;;;2.23;;
7935;SDS011;4013;49.744;8.118;2024-01-15T19:42:58;4.83;;;2.60;;
7935;SDS011;4013;49.744;8.118;2024-01-15T19:45:26;7.67;;;3.10;;
7935;SDS011;4013;49.744;8.118;2024-01-15T19:47:54;6.50;;;3.10;;
7935;SDS011;4013;49.744;8.118;2024-01-15T19:50:22;4.47;;;2.90;;
7935;SDS011;4013;49.744;8.118;2024-01-15T19:52:48;6.30;;;3.33;;
7935;SDS011;4013;49.744;8.118;2024-01-15T19:55:16;6.33;;;2.90;;
7935;SDS011;4013;49.744;8.118;2024-01-15T19:57:43;5.60;;;3.03;;
7935;SDS011;4013;49.744;8.118;2024-01-15T20:00:10;5.57;;;2.73;;
7935;SDS011;4013;49.744;8.118;2024-01-15T20:02:37;5.20;;;2.70;;
7935;SDS011;4013;49.744;8.118;2024-01-15T20:05:06;3.63;;;2.80;;
7935;SDS011;4013;49.744;8.118;2024-01-15T20:07:35;8.10;;;3.33;;
7935;SDS011;4013;49.744;8.118;2024-01-15T20:10:02;3.57;;;2.70;;
7935;SDS011;4013;49.744;8.118;2024-01-15T20:12:29;7.37;;;2.97;;
7935;SDS011;4013;49.744;8.118;2024-01-15T20:14:57;5.77;;;2.83;;
7935;SDS011;4013;49.744;8.118;2024-01-15T20:17:23;6.40;;;2.73;;
7935;SDS011;4013;49.744;8.118;2024-01-15T20:19:50;3.70;;;2.70;;
7935;SDS011;4013;49.744;8.118;2024-01-15T20:22:19;4.97;;;2.50;;
7935;SDS011;4013;49.744;8.118;2024-01-15T20:24:45;4.53;;;2.60;;
7935;SDS011;4013;49.744;8.118;2024-01-15T20:27:12;3.10;;;2.80;;
7935;SDS011;4013;49.744;8.118;2024-01-15T20:29:41;6.87;;;3.27;;
7935;SDS011;4013;49.744;8.118;2024-01-15T20:32:08;2.80;;;2.50;;
7935;SDS011;4013;49.744;8.118;2024-01-15T20:34:36;6.23;;;3.20;;
7935;SDS011;4013;49.744;8.118;2024-01-15T20:37:03;4.10;;;2.87;;
7935;SDS011;4013;49.744;8.118;2024-01-15T20:39:32;3.07;;;2.60;;
7935;SDS011;4013;49.744;8.118;2024-01-15T20:41:59;4.83;;;2.60;;
7935;SDS011;4013;49.744;8.118;2024-01-15T20:44:27;5.23;;;3.57;;
7935;SDS011;4013;49.744;8.118;2024-01-15T20:46:54;4.53;;;2.50;;
7935;SDS011;4013;49.744;8.118;2024-01-15T20:49:23;4.10;;;2.50;;